sensor_id;sensor_type;location;lat;lon;timestamp;temperature;humidity
43858;DHT22;29507;51.284;5.758;2022-09-27T00:02:03;9.10;99.90
43858;DHT22;29507;51.284;5.758;2022-09-27T00:04:29;9.10;99.90
43858;DHT22;29507;51.284;5.758;2022-09-27T00:06:54;9.10;99.90
43858;DHT22;29507;51.284;5.758;2022-09-27T00:09:20;9.10;99.90
43858;DHT22;29507;51.284;5.758;2022-09-27T00:11:46;9.10;99.90
43858;DHT22;29507;51.284;5.758;2022-09-27T00:14:13;9.00;99.90
43858;DHT22;29507;51.284;5.758;2022-09-27T00:16:41;9.00;99.90
43858;DHT22;29507;51.284;5.758;2022-09-27T00:19:10;9.00;99.90
43858;DHT22;29507;51.284;5.758;2022-09-27T00:21:36;9.00;99.90
43858;DHT22;29507;51.284;5.758;2022-09-27T00:24:02;9.10;99.90
43858;DHT22;29507;51.284;5.758;2022-09-27T00:26:28;9.00;99.90
43858;DHT22;29507;51.284;5.758;2022-09-27T00:28:54;9.00;99.90
43858;DHT22;29507;51.284;5.758;2022-09-27T00:31:28;9.00;99.90
43858;DHT22;29507;51.284;5.758;2022-09-27T00:33:56;9.00;99.90
43858;DHT22;29507;51.284;5.758;2022-09-27T00:36:23;9.00;99.90
43858;DHT22;29507;51.284;5.758;2022-09-27T00:38:50;9.00;99.90
43858;DHT22;29507;51.284;5.758;2022-09-27T00:41:24;9.20;99.90
43858;DHT22;29507;51.284;5.758;2022-09-27T00:43:56;9.20;99.90
43858;DHT22;29507;51.284;5.758;2022-09-27T00:46:46;9.20;99.90
43858;DHT22;29507;51.284;5.758;2022-09-27T00:49:23;9.20;99.90
43858;DHT22;29507;51.284;5.758;2022-09-27T00:51:57;9.10;99.90
43858;DHT22;29507;51.284;5.758;2022-09-27T00:54:26;9.10;99.90
43858;DHT22;29507;51.284;5.758;2022-09-27T00:56:53;9.00;99.90
43858;DHT22;29507;51.284;5.758;2022-09-27T01:01:49;9.00;99.90
43858;DHT22;29507;51.284;5.758;2022-09-27T01:04:18;9.00;99.90
43858;DHT22;29507;51.284;5.758;2022-09-27T01:06:47;9.00;99.90
43858;DHT22;29507;51.284;5.758;2022-09-27T01:09:13;9.00;99.90
43858;DHT22;29507;51.284;5.758;2022-09-27T01:11:57;9.00;99.90
43858;DHT22;29507;51.284;5.758;2022-09-27T01:39:47;8.80;99.90
43858;DHT22;29507;51.284;5.758;2022-09-27T01:42:24;8.80;99.90
43858;DHT22;29507;51.284;5.758;2022-09-27T01:45:23;8.70;99.90
43858;DHT22;29507;51.284;5.758;2022-09-27T01:47:54;8.70;99.90
43858;DHT22;29507;51.284;5.758;2022-09-27T01:50:30;8.70;99.90
43858;DHT22;29507;51.284;5.758;2022-09-27T01:53:45;8.70;99.90
43858;DHT22;29507;51.284;5.758;2022-09-27T01:55:53;8.80;99.90
43858;DHT22;29507;51.284;5.758;2022-09-27T01:58:38;8.70;99.90
43858;DHT22;29507;51.284;5.758;2022-09-27T02:01:06;8.70;99.90
43858;DHT22;29507;51.284;5.758;2022-09-27T02:03:36;8.70;99.90
43858;DHT22;29507;51.284;5.758;2022-09-27T02:06:09;8.80;99.90
43858;DHT22;29507;51.284;5.758;2022-09-27T02:11:09;8.80;99.90
43858;DHT22;29507;51.284;5.758;2022-09-27T02:16:33;8.80;99.90
43858;DHT22;29507;51.284;5.758;2022-09-27T02:19:09;8.80;99.90
43858;DHT22;29507;51.284;5.758;2022-09-27T02:27:17;8.70;99.90
43858;DHT22;29507;51.284;5.758;2022-09-27T02:29:52;8.60;99.90
43858;DHT22;29507;51.284;5.758;2022-09-27T02:32:18;8.70;99.90
43858;DHT22;29507;51.284;5.758;2022-09-27T02:34:45;8.60;99.90
43858;DHT22;29507;51.284;5.758;2022-09-27T02:37:11;8.50;99.90
43858;DHT22;29507;51.284;5.758;2022-09-27T02:39:37;8.60;99.90
43858;DHT22;29507;51.284;5.758;2022-09-27T02:42:04;8.50;99.90
43858;DHT22;29507;51.284;5.758;2022-09-27T02:44:30;8.50;99.90
43858;DHT22;29507;51.284;5.758;2022-09-27T02:50:07;8.40;99.90
43858;DHT22;29507;51.284;5.758;2022-09-27T02:58:45;8.30;99.90
43858;DHT22;29507;51.284;5.758;2022-09-27T03:06:34;8.20;99.90
43858;DHT22;29507;51.284;5.758;2022-09-27T03:09:00;8.20;99.90
43858;DHT22;29507;51.284;5.758;2022-09-27T03:11:26;8.20;99.90
43858;DHT22;29507;51.284;5.758;2022-09-27T03:13:51;8.30;99.90
43858;DHT22;29507;51.284;5.758;2022-09-27T03:16:17;8.30;99.90
43858;DHT22;29507;51.284;5.758;2022-09-27T03:18:43;8.30;99.90
43858;DHT22;29507;51.284;5.758;2022-09-27T03:21:09;8.40;99.90
43858;DHT22;29507;51.284;5.758;2022-09-27T03:23:34;8.40;99.90
43858;DHT22;29507;51.284;5.758;2022-09-27T03:26:00;8.40;99.90
43858;DHT22;29507;51.284;5.758;2022-09-27T03:28:25;8.40;99.90
43858;DHT22;29507;51.284;5.758;2022-09-27T03:30:54;8.30;99.90
43858;DHT22;29507;51.284;5.758;2022-09-27T03:33:19;8.30;99.90
43858;DHT22;29507;51.284;5.758;2022-09-27T03:35:45;8.20;99.90
43858;DHT22;29507;51.284;5.758;2022-09-27T03:38:10;8.20;99.90
43858;DHT22;29507;51.284;5.758;2022-09-27T03:40:37;8.20;99.90
43858;DHT22;29507;51.284;5.758;2022-09-27T03:43:02;8.20;99.90
43858;DHT22;29507;51.284;5.758;2022-09-27T03:45:28;8.10;99.90
43858;DHT22;29507;51.284;5.758;2022-09-27T03:47:53;8.10;99.90
43858;DHT22;29507;51.284;5.758;2022-09-27T03:50:19;8.10;99.90
43858;DHT22;29507;51.284;5.758;2022-09-27T03:52:45;8.10;99.90
43858;DHT22;29507;51.284;5.758;2022-09-27T03:55:11;8.10;99.90
43858;DHT22;29507;51.284;5.758;2022-09-27T03:57:37;8.10;99.90
43858;DHT22;29507;51.284;5.758;2022-09-27T04:00:04;8.10;99.90
43858;DHT22;29507;51.284;5.758;2022-09-27T04:02:30;8.10;99.90
43858;DHT22;29507;51.284;5.758;2022-09-27T04:04:56;8.10;99.90
43858;DHT22;29507;51.284;5.758;2022-09-27T04:07:22;8.10;99.90
43858;DHT22;29507;51.284;5.758;2022-09-27T04:09:48;8.10;99.90
43858;DHT22;29507;51.284;5.758;2022-09-27T04:12:13;8.20;99.90
43858;DHT22;29507;51.284;5.758;2022-09-27T04:14:39;8.20;99.90
43858;DHT22;29507;51.284;5.758;2022-09-27T04:17:05;8.20;99.90
43858;DHT22;29507;51.284;5.758;2022-09-27T04:19:31;8.30;99.90
43858;DHT22;29507;51.284;5.758;2022-09-27T04:21:57;8.30;99.90
43858;DHT22;29507;51.284;5.758;2022-09-27T04:24:22;8.30;99.90
43858;DHT22;29507;51.284;5.758;2022-09-27T04:26:48;8.30;99.90
43858;DHT22;29507;51.284;5.758;2022-09-27T04:29:14;8.30;99.90
43858;DHT22;29507;51.284;5.758;2022-09-27T04:31:41;8.30;99.90
43858;DHT22;29507;51.284;5.758;2022-09-27T04:34:08;8.30;99.90
43858;DHT22;29507;51.284;5.758;2022-09-27T04:36:34;8.30;99.90
43858;DHT22;29507;51.284;5.758;2022-09-27T04:39:01;8.30;99.90
43858;DHT22;29507;51.284;5.758;2022-09-27T04:41:28;8.30;99.90
43858;DHT22;29507;51.284;5.758;2022-09-27T04:43:54;8.30;99.90
43858;DHT22;29507;51.284;5.758;2022-09-27T04:46:20;8.40;99.90
43858;DHT22;29507;51.284;5.758;2022-09-27T04:48:47;8.40;99.90
43858;DHT22;29507;51.284;5.758;2022-09-27T04:51:13;8.40;99.90
43858;DHT22;29507;51.284;5.758;2022-09-27T04:53:43;8.40;99.90
43858;DHT22;29507;51.284;5.758;2022-09-27T04:56:10;8.40;99.90
43858;DHT22;29507;51.284;5.758;2022-09-27T04:58:36;8.30;99.90
43858;DHT22;29507;51.284;5.758;2022-09-27T05:01:02;8.30;99.90
43858;DHT22;29507;51.284;5.758;2022-09-27T05:03:32;8.40;99.90
43858;DHT22;29507;51.284;5.758;2022-09-27T05:05:58;8.30;99.90
43858;DHT22;29507;51.284;5.758;2022-09-27T05:08:25;8.30;99.90
43858;DHT22;29507;51.284;5.758;2022-09-27T05:10:51;8.30;99.90
43858;DHT22;29507;51.284;5.758;2022-09-27T05:13:16;8.30;99.90
43858;DHT22;29507;51.284;5.758;2022-09-27T05:15:42;8.30;99.90
43858;DHT22;29507;51.284;5.758;2022-09-27T05:18:08;8.30;99.90
43858;DHT22;29507;51.284;5.758;2022-09-27T05:20:38;8.30;99.90
43858;DHT22;29507;51.284;5.758;2022-09-27T05:23:04;8.30;99.90
43858;DHT22;29507;51.284;5.758;2022-09-27T05:25:31;8.30;99.90
43858;DHT22;29507;51.284;5.758;2022-09-27T05:27:57;8.30;99.90
43858;DHT22;29507;51.284;5.758;2022-09-27T05:30:24;8.30;99.90
43858;DHT22;29507;51.284;5.758;2022-09-27T05:32:50;8.30;99.90
43858;DHT22;29507;51.284;5.758;2022-09-27T05:35:17;8.20;99.90
43858;DHT22;29507;51.284;5.758;2022-09-27T05:37:53;8.30;99.90
43858;DHT22;29507;51.284;5.758;2022-09-27T05:40:19;8.30;99.90
43858;DHT22;29507;51.284;5.758;2022-09-27T05:42:49;8.30;99.90
43858;DHT22;29507;51.284;5.758;2022-09-27T05:45:15;8.20;99.90
43858;DHT22;29507;51.284;5.758;2022-09-27T05:47:41;8.30;99.90
43858;DHT22;29507;51.284;5.758;2022-09-27T05:50:07;8.20;99.90
43858;DHT22;29507;51.284;5.758;2022-09-27T05:52:33;8.20;99.90
43858;DHT22;29507;51.284;5.758;2022-09-27T05:54:59;8.10;99.90
43858;DHT22;29507;51.284;5.758;2022-09-27T05:57:24;8.10;99.90
43858;DHT22;29507;51.284;5.758;2022-09-27T05:59:50;8.10;99.90
43858;DHT22;29507;51.284;5.758;2022-09-27T06:02:16;8.00;99.90
43858;DHT22;29507;51.284;5.758;2022-09-27T06:04:42;8.00;99.90
43858;DHT22;29507;51.284;5.758;2022-09-27T06:07:08;8.00;99.90
43858;DHT22;29507;51.284;5.758;2022-09-27T06:09:34;7.90;99.90
43858;DHT22;29507;51.284;5.758;2022-09-27T06:12:00;8.00;99.90
43858;DHT22;29507;51.284;5.758;2022-09-27T06:14:26;7.90;99.90
43858;DHT22;29507;51.284;5.758;2022-09-27T06:16:52;7.90;99.90
43858;DHT22;29507;51.284;5.758;2022-09-27T06:19:19;7.90;99.90
43858;DHT22;29507;51.284;5.758;2022-09-27T06:21:48;7.90;99.90
43858;DHT22;29507;51.284;5.758;2022-09-27T06:24:14;8.00;99.90
43858;DHT22;29507;51.284;5.758;2022-09-27T06:26:40;8.00;99.90
43858;DHT22;29507;51.284;5.758;2022-09-27T06:29:05;8.00;99.90
43858;DHT22;29507;51.284;5.758;2022-09-27T06:31:32;8.00;99.90
43858;DHT22;29507;51.284;5.758;2022-09-27T06:33:57;8.10;99.90
43858;DHT22;29507;51.284;5.758;2022-09-27T06:36:23;8.10;99.90
43858;DHT22;29507;51.284;5.758;2022-09-27T06:38:49;8.10;99.90
43858;DHT22;29507;51.284;5.758;2022-09-27T06:41:14;8.10;99.90
43858;DHT22;29507;51.284;5.758;2022-09-27T06:43:40;8.10;99.90
43858;DHT22;29507;51.284;5.758;2022-09-27T06:46:06;8.20;99.90
43858;DHT22;29507;51.284;5.758;2022-09-27T06:48:33;8.30;99.90
43858;DHT22;29507;51.284;5.758;2022-09-27T06:50:59;8.30;99.90
43858;DHT22;29507;51.284;5.758;2022-09-27T06:53:25;8.40;99.90
43858;DHT22;29507;51.284;5.758;2022-09-27T06:55:51;8.50;99.90
43858;DHT22;29507;51.284;5.758;2022-09-27T06:58:17;8.50;99.90
43858;DHT22;29507;51.284;5.758;2022-09-27T07:01:02;8.50;99.90
43858;DHT22;29507;51.284;5.758;2022-09-27T07:03:28;8.60;99.90
43858;DHT22;29507;51.284;5.758;2022-09-27T07:06:04;8.60;99.90
43858;DHT22;29507;51.284;5.758;2022-09-27T07:08:31;8.60;99.90
43858;DHT22;29507;51.284;5.758;2022-09-27T07:11:05;8.60;99.90
43858;DHT22;29507;51.284;5.758;2022-09-27T07:13:30;8.60;99.90
43858;DHT22;29507;51.284;5.758;2022-09-27T07:15:59;8.70;99.90
43858;DHT22;29507;51.284;5.758;2022-09-27T07:18:24;8.70;99.90
43858;DHT22;29507;51.284;5.758;2022-09-27T07:20:50;8.70;99.90
43858;DHT22;29507;51.284;5.758;2022-09-27T07:23:16;8.80;99.90
43858;DHT22;29507;51.284;5.758;2022-09-27T07:26:01;8.80;99.90
43858;DHT22;29507;51.284;5.758;2022-09-27T07:28:31;8.80;99.90
43858;DHT22;29507;51.284;5.758;2022-09-27T07:30:57;8.80;99.90
43858;DHT22;29507;51.284;5.758;2022-09-27T07:33:23;9.00;99.90
43858;DHT22;29507;51.284;5.758;2022-09-27T07:35:48;9.00;99.90
43858;DHT22;29507;51.284;5.758;2022-09-27T07:38:14;9.10;99.90
43858;DHT22;29507;51.284;5.758;2022-09-27T07:40:41;9.20;99.90
43858;DHT22;29507;51.284;5.758;2022-09-27T07:43:07;9.20;99.90
43858;DHT22;29507;51.284;5.758;2022-09-27T07:45:34;9.30;99.90
43858;DHT22;29507;51.284;5.758;2022-09-27T07:48:00;9.40;99.90
43858;DHT22;29507;51.284;5.758;2022-09-27T07:50:28;9.40;99.90
43858;DHT22;29507;51.284;5.758;2022-09-27T07:52:54;9.50;99.90
43858;DHT22;29507;51.284;5.758;2022-09-27T07:55:20;9.60;99.90
43858;DHT22;29507;51.284;5.758;2022-09-27T07:57:46;9.70;99.90
43858;DHT22;29507;51.284;5.758;2022-09-27T08:00:15;9.70;99.90
43858;DHT22;29507;51.284;5.758;2022-09-27T08:02:41;9.80;99.90
43858;DHT22;29507;51.284;5.758;2022-09-27T08:05:08;9.80;99.90
43858;DHT22;29507;51.284;5.758;2022-09-27T08:07:34;10.00;99.90
43858;DHT22;29507;51.284;5.758;2022-09-27T08:10:00;10.20;99.90
43858;DHT22;29507;51.284;5.758;2022-09-27T08:12:25;10.40;99.90
43858;DHT22;29507;51.284;5.758;2022-09-27T08:14:51;10.60;99.90
43858;DHT22;29507;51.284;5.758;2022-09-27T08:17:17;10.70;99.90
43858;DHT22;29507;51.284;5.758;2022-09-27T08:19:43;10.90;99.90
43858;DHT22;29507;51.284;5.758;2022-09-27T08:22:10;11.00;99.90
43858;DHT22;29507;51.284;5.758;2022-09-27T08:24:38;11.00;99.90
43858;DHT22;29507;51.284;5.758;2022-09-27T08:27:04;11.00;99.90
43858;DHT22;29507;51.284;5.758;2022-09-27T08:29:30;10.90;99.90
43858;DHT22;29507;51.284;5.758;2022-09-27T08:31:56;10.80;99.90
43858;DHT22;29507;51.284;5.758;2022-09-27T08:34:22;10.70;99.90
43858;DHT22;29507;51.284;5.758;2022-09-27T08:36:48;10.50;99.90
43858;DHT22;29507;51.284;5.758;2022-09-27T08:39:14;10.30;99.90
43858;DHT22;29507;51.284;5.758;2022-09-27T08:41:49;10.10;99.90
43858;DHT22;29507;51.284;5.758;2022-09-27T08:44:45;9.90;99.90
43858;DHT22;29507;51.284;5.758;2022-09-27T08:47:16;9.80;99.90
43858;DHT22;29507;51.284;5.758;2022-09-27T08:52:29;9.60;99.90
43858;DHT22;29507;51.284;5.758;2022-09-27T08:55:03;9.50;99.90
43858;DHT22;29507;51.284;5.758;2022-09-27T08:57:30;9.50;99.90
43858;DHT22;29507;51.284;5.758;2022-09-27T09:00:05;9.40;99.90
43858;DHT22;29507;51.284;5.758;2022-09-27T09:02:32;9.40;99.90
43858;DHT22;29507;51.284;5.758;2022-09-27T09:05:12;9.30;99.90
43858;DHT22;29507;51.284;5.758;2022-09-27T09:13:31;9.30;99.90
43858;DHT22;29507;51.284;5.758;2022-09-27T09:16:30;9.30;99.90
43858;DHT22;29507;51.284;5.758;2022-09-27T09:30:17;9.30;99.90
43858;DHT22;29507;51.284;5.758;2022-09-27T09:35:38;9.40;99.90
43858;DHT22;29507;51.284;5.758;2022-09-27T09:38:22;9.50;99.90
43858;DHT22;29507;51.284;5.758;2022-09-27T09:41:14;9.50;99.90
43858;DHT22;29507;51.284;5.758;2022-09-27T09:43:43;9.60;99.90
43858;DHT22;29507;51.284;5.758;2022-09-27T09:46:30;9.80;99.90
43858;DHT22;29507;51.284;5.758;2022-09-27T09:51:41;10.10;99.90
43858;DHT22;29507;51.284;5.758;2022-09-27T09:54:28;10.40;99.90
43858;DHT22;29507;51.284;5.758;2022-09-27T09:57:05;10.60;99.90
43858;DHT22;29507;51.284;5.758;2022-09-27T09:59:42;10.80;99.90
43858;DHT22;29507;51.284;5.758;2022-09-27T10:02:23;10.80;99.90
43858;DHT22;29507;51.284;5.758;2022-09-27T10:04:50;10.80;99.90
43858;DHT22;29507;51.284;5.758;2022-09-27T10:07:19;10.80;99.90
43858;DHT22;29507;51.284;5.758;2022-09-27T10:09:45;10.70;99.90
43858;DHT22;29507;51.284;5.758;2022-09-27T10:12:10;10.70;99.90
43858;DHT22;29507;51.284;5.758;2022-09-27T10:14:37;10.70;99.90
43858;DHT22;29507;51.284;5.758;2022-09-27T10:17:05;10.60;99.90
43858;DHT22;29507;51.284;5.758;2022-09-27T10:19:34;10.60;99.90
43858;DHT22;29507;51.284;5.758;2022-09-27T10:22:12;10.70;99.90
43858;DHT22;29507;51.284;5.758;2022-09-27T10:24:56;10.70;99.90
43858;DHT22;29507;51.284;5.758;2022-09-27T10:27:24;10.60;99.90
43858;DHT22;29507;51.284;5.758;2022-09-27T10:29:57;10.70;99.90
43858;DHT22;29507;51.284;5.758;2022-09-27T10:32:33;10.80;99.90
43858;DHT22;29507;51.284;5.758;2022-09-27T10:40:43;11.00;99.90
43858;DHT22;29507;51.284;5.758;2022-09-27T10:48:37;10.70;99.90
43858;DHT22;29507;51.284;5.758;2022-09-27T10:51:05;10.70;99.90
43858;DHT22;29507;51.284;5.758;2022-09-27T10:53:34;10.80;99.90
43858;DHT22;29507;51.284;5.758;2022-09-27T10:56:00;10.90;99.90
43858;DHT22;29507;51.284;5.758;2022-09-27T11:01:08;11.10;99.90
43858;DHT22;29507;51.284;5.758;2022-09-27T11:03:44;11.10;99.90
43858;DHT22;29507;51.284;5.758;2022-09-27T11:08:52;11.10;99.90
43858;DHT22;29507;51.284;5.758;2022-09-27T11:11:26;11.10;99.90
43858;DHT22;29507;51.284;5.758;2022-09-27T11:14:04;11.10;99.90
43858;DHT22;29507;51.284;5.758;2022-09-27T11:19:24;11.10;99.90
43858;DHT22;29507;51.284;5.758;2022-09-27T11:24:48;10.40;99.90
43858;DHT22;29507;51.284;5.758;2022-09-27T11:30:22;9.70;99.90
43858;DHT22;29507;51.284;5.758;2022-09-27T11:32:56;9.50;99.90
43858;DHT22;29507;51.284;5.758;2022-09-27T11:35:50;9.40;99.90
43858;DHT22;29507;51.284;5.758;2022-09-27T11:41:15;8.90;99.90
43858;DHT22;29507;51.284;5.758;2022-09-27T11:46:32;9.00;99.90
43858;DHT22;29507;51.284;5.758;2022-09-27T11:49:12;9.10;99.90
43858;DHT22;29507;51.284;5.758;2022-09-27T11:54:44;9.40;99.90
43858;DHT22;29507;51.284;5.758;2022-09-27T11:57:31;9.50;99.90
43858;DHT22;29507;51.284;5.758;2022-09-27T12:00:20;9.60;99.90
43858;DHT22;29507;51.284;5.758;2022-09-27T12:10:46;10.00;99.90
43858;DHT22;29507;51.284;5.758;2022-09-27T12:13:15;10.00;99.90
43858;DHT22;29507;51.284;5.758;2022-09-27T12:15:45;10.10;99.90
43858;DHT22;29507;51.284;5.758;2022-09-27T12:18:26;10.20;99.90
43858;DHT22;29507;51.284;5.758;2022-09-27T12:20:54;10.40;99.90
43858;DHT22;29507;51.284;5.758;2022-09-27T12:23:46;10.60;99.90
43858;DHT22;29507;51.284;5.758;2022-09-27T12:26:21;10.70;99.90
43858;DHT22;29507;51.284;5.758;2022-09-27T12:28:55;11.00;99.90
43858;DHT22;29507;51.284;5.758;2022-09-27T12:31:27;11.30;99.90
43858;DHT22;29507;51.284;5.758;2022-09-27T12:34:34;11.80;99.90
43858;DHT22;29507;51.284;5.758;2022-09-27T12:39:57;12.20;99.90
43858;DHT22;29507;51.284;5.758;2022-09-27T12:42:49;12.40;99.90
43858;DHT22;29507;51.284;5.758;2022-09-27T12:45:14;12.70;99.90
43858;DHT22;29507;51.284;5.758;2022-09-27T12:47:44;13.20;99.90
43858;DHT22;29507;51.284;5.758;2022-09-27T12:50:51;13.50;99.90
43858;DHT22;29507;51.284;5.758;2022-09-27T12:53:24;14.00;99.90
43858;DHT22;29507;51.284;5.758;2022-09-27T13:06:32;14.00;99.90
43858;DHT22;29507;51.284;5.758;2022-09-27T13:12:12;13.90;99.90
43858;DHT22;29507;51.284;5.758;2022-09-27T13:14:43;13.40;99.90
43858;DHT22;29507;51.284;5.758;2022-09-27T13:17:33;13.10;99.90
43858;DHT22;29507;51.284;5.758;2022-09-27T13:20:40;13.00;99.90
43858;DHT22;29507;51.284;5.758;2022-09-27T13:28:33;12.60;99.90
43858;DHT22;29507;51.284;5.758;2022-09-27T13:31:06;12.30;99.90
43858;DHT22;29507;51.284;5.758;2022-09-27T13:41:23;11.60;99.90
43858;DHT22;29507;51.284;5.758;2022-09-27T13:46:57;11.10;99.90
43858;DHT22;29507;51.284;5.758;2022-09-27T13:49:37;10.80;99.90
43858;DHT22;29507;51.284;5.758;2022-09-27T13:52:33;10.70;99.90
43858;DHT22;29507;51.284;5.758;2022-09-27T13:55:02;10.60;99.90
43858;DHT22;29507;51.284;5.758;2022-09-27T14:00:39;10.40;99.90
43858;DHT22;29507;51.284;5.758;2022-09-27T14:03:21;10.20;99.90
43858;DHT22;29507;51.284;5.758;2022-09-27T14:05:50;10.00;99.90
43858;DHT22;29507;51.284;5.758;2022-09-27T14:08:26;9.70;99.90
43858;DHT22;29507;51.284;5.758;2022-09-27T14:10:54;9.50;99.90
43858;DHT22;29507;51.284;5.758;2022-09-27T14:13:22;9.40;99.90
43858;DHT22;29507;51.284;5.758;2022-09-27T14:15:50;9.40;99.90
43858;DHT22;29507;51.284;5.758;2022-09-27T14:18:16;9.60;99.90
43858;DHT22;29507;51.284;5.758;2022-09-27T14:20:44;9.80;99.90
43858;DHT22;29507;51.284;5.758;2022-09-27T14:23:24;10.00;99.90
43858;DHT22;29507;51.284;5.758;2022-09-27T14:25:52;10.10;99.90
43858;DHT22;29507;51.284;5.758;2022-09-27T14:28:23;10.10;99.90
43858;DHT22;29507;51.284;5.758;2022-09-27T14:31:04;10.20;99.90
43858;DHT22;29507;51.284;5.758;2022-09-27T14:33:33;10.20;99.90
43858;DHT22;29507;51.284;5.758;2022-09-27T14:35:59;10.20;99.90
43858;DHT22;29507;51.284;5.758;2022-09-27T14:38:44;10.40;99.90
43858;DHT22;29507;51.284;5.758;2022-09-27T14:41:10;10.60;99.90
43858;DHT22;29507;51.284;5.758;2022-09-27T14:43:41;10.70;99.90
43858;DHT22;29507;51.284;5.758;2022-09-27T14:46:27;10.90;99.90
43858;DHT22;29507;51.284;5.758;2022-09-27T14:48:53;10.90;99.90
43858;DHT22;29507;51.284;5.758;2022-09-27T14:51:28;10.90;99.90
43858;DHT22;29507;51.284;5.758;2022-09-27T14:53:56;10.90;99.90
43858;DHT22;29507;51.284;5.758;2022-09-27T14:56:29;10.80;99.90
43858;DHT22;29507;51.284;5.758;2022-09-27T14:59:22;10.60;99.90
43858;DHT22;29507;51.284;5.758;2022-09-27T15:01:52;10.50;99.90
43858;DHT22;29507;51.284;5.758;2022-09-27T15:04:19;10.40;99.90
43858;DHT22;29507;51.284;5.758;2022-09-27T15:06:46;10.30;99.90
43858;DHT22;29507;51.284;5.758;2022-09-27T15:09:13;10.20;99.90
43858;DHT22;29507;51.284;5.758;2022-09-27T15:11:46;10.10;99.90
43858;DHT22;29507;51.284;5.758;2022-09-27T15:14:17;10.00;99.90
43858;DHT22;29507;51.284;5.758;2022-09-27T15:16:49;10.00;99.90
43858;DHT22;29507;51.284;5.758;2022-09-27T15:19:27;9.90;99.90
43858;DHT22;29507;51.284;5.758;2022-09-27T15:21:53;9.90;99.90
43858;DHT22;29507;51.284;5.758;2022-09-27T15:27:13;9.90;99.90
43858;DHT22;29507;51.284;5.758;2022-09-27T15:29:53;9.90;99.90
43858;DHT22;29507;51.284;5.758;2022-09-27T15:32:21;9.90;99.90
43858;DHT22;29507;51.284;5.758;2022-09-27T15:34:48;9.80;99.90
43858;DHT22;29507;51.284;5.758;2022-09-27T15:37:35;9.80;99.90
43858;DHT22;29507;51.284;5.758;2022-09-27T15:40:55;9.80;99.90
43858;DHT22;29507;51.284;5.758;2022-09-27T15:43:33;9.80;99.90
43858;DHT22;29507;51.284;5.758;2022-09-27T15:46:23;9.90;99.90
43858;DHT22;29507;51.284;5.758;2022-09-27T15:51:49;9.90;99.90
43858;DHT22;29507;51.284;5.758;2022-09-27T15:54:19;9.90;99.90
43858;DHT22;29507;51.284;5.758;2022-09-27T15:56:49;9.80;99.90
43858;DHT22;29507;51.284;5.758;2022-09-27T15:59:22;9.70;99.90
43858;DHT22;29507;51.284;5.758;2022-09-27T16:01:48;9.70;99.90
43858;DHT22;29507;51.284;5.758;2022-09-27T16:04:17;9.50;99.90
43858;DHT22;29507;51.284;5.758;2022-09-27T16:06:42;9.30;99.90
43858;DHT22;29507;51.284;5.758;2022-09-27T16:09:14;9.20;99.90
43858;DHT22;29507;51.284;5.758;2022-09-27T16:11:42;9.10;99.90
43858;DHT22;29507;51.284;5.758;2022-09-27T16:14:08;9.00;99.90
43858;DHT22;29507;51.284;5.758;2022-09-27T16:16:33;9.00;99.90
43858;DHT22;29507;51.284;5.758;2022-09-27T16:18:59;9.00;99.90
43858;DHT22;29507;51.284;5.758;2022-09-27T16:21:25;8.90;99.90
43858;DHT22;29507;51.284;5.758;2022-09-27T16:23:50;8.90;99.90
43858;DHT22;29507;51.284;5.758;2022-09-27T16:26:16;8.90;99.90
43858;DHT22;29507;51.284;5.758;2022-09-27T16:28:44;8.90;99.90
43858;DHT22;29507;51.284;5.758;2022-09-27T16:31:10;8.80;99.90
43858;DHT22;29507;51.284;5.758;2022-09-27T16:33:36;8.80;99.90
43858;DHT22;29507;51.284;5.758;2022-09-27T16:36:07;8.80;99.90
43858;DHT22;29507;51.284;5.758;2022-09-27T16:38:41;8.80;99.90
43858;DHT22;29507;51.284;5.758;2022-09-27T16:41:07;8.80;99.90
43858;DHT22;29507;51.284;5.758;2022-09-27T16:43:33;8.80;99.90
43858;DHT22;29507;51.284;5.758;2022-09-27T16:46:06;8.80;99.90
43858;DHT22;29507;51.284;5.758;2022-09-27T16:48:36;8.70;99.90
43858;DHT22;29507;51.284;5.758;2022-09-27T16:51:08;8.70;99.90
43858;DHT22;29507;51.284;5.758;2022-09-27T16:54:01;8.70;99.90
43858;DHT22;29507;51.284;5.758;2022-09-27T16:56:27;8.70;99.90
43858;DHT22;29507;51.284;5.758;2022-09-27T16:58:53;8.80;99.90
43858;DHT22;29507;51.284;5.758;2022-09-27T17:01:19;8.80;99.90
43858;DHT22;29507;51.284;5.758;2022-09-27T17:03:50;8.80;99.90
43858;DHT22;29507;51.284;5.758;2022-09-27T17:06:19;8.80;99.90
43858;DHT22;29507;51.284;5.758;2022-09-27T17:08:45;8.80;99.90
43858;DHT22;29507;51.284;5.758;2022-09-27T17:11:12;8.80;99.90
43858;DHT22;29507;51.284;5.758;2022-09-27T17:13:40;8.80;99.90
43858;DHT22;29507;51.284;5.758;2022-09-27T17:16:06;8.80;99.90
43858;DHT22;29507;51.284;5.758;2022-09-27T17:18:32;8.80;99.90
43858;DHT22;29507;51.284;5.758;2022-09-27T17:21:01;8.80;99.90
43858;DHT22;29507;51.284;5.758;2022-09-27T17:23:29;8.80;99.90
43858;DHT22;29507;51.284;5.758;2022-09-27T17:26:01;8.80;99.90
43858;DHT22;29507;51.284;5.758;2022-09-27T17:28:27;8.70;99.90
43858;DHT22;29507;51.284;5.758;2022-09-27T17:30:53;8.80;99.90
43858;DHT22;29507;51.284;5.758;2022-09-27T17:33:20;8.80;99.90
43858;DHT22;29507;51.284;5.758;2022-09-27T17:35:46;8.70;99.90
43858;DHT22;29507;51.284;5.758;2022-09-27T17:38:24;8.70;99.90
43858;DHT22;29507;51.284;5.758;2022-09-27T17:41:02;8.70;99.90
43858;DHT22;29507;51.284;5.758;2022-09-27T17:43:28;8.70;99.90
43858;DHT22;29507;51.284;5.758;2022-09-27T17:46:07;8.60;99.90
43858;DHT22;29507;51.284;5.758;2022-09-27T17:48:34;8.60;99.90
43858;DHT22;29507;51.284;5.758;2022-09-27T17:51:18;8.60;99.90
43858;DHT22;29507;51.284;5.758;2022-09-27T17:53:44;8.70;99.90
43858;DHT22;29507;51.284;5.758;2022-09-27T17:56:11;8.70;99.90
43858;DHT22;29507;51.284;5.758;2022-09-27T17:58:37;8.60;99.90
43858;DHT22;29507;51.284;5.758;2022-09-27T18:01:05;8.60;99.90
43858;DHT22;29507;51.284;5.758;2022-09-27T18:03:33;8.60;99.90
43858;DHT22;29507;51.284;5.758;2022-09-27T18:06:04;8.60;99.90
43858;DHT22;29507;51.284;5.758;2022-09-27T18:08:31;8.60;99.90
43858;DHT22;29507;51.284;5.758;2022-09-27T18:11:03;8.70;99.90
43858;DHT22;29507;51.284;5.758;2022-09-27T18:13:29;8.70;99.90
43858;DHT22;29507;51.284;5.758;2022-09-27T18:16:02;8.70;99.90
43858;DHT22;29507;51.284;5.758;2022-09-27T18:18:29;8.80;99.90
43858;DHT22;29507;51.284;5.758;2022-09-27T18:21:00;8.80;99.90
43858;DHT22;29507;51.284;5.758;2022-09-27T18:23:27;8.80;99.90
43858;DHT22;29507;51.284;5.758;2022-09-27T18:25:53;8.80;99.90
43858;DHT22;29507;51.284;5.758;2022-09-27T18:28:24;8.80;99.90
43858;DHT22;29507;51.284;5.758;2022-09-27T18:30:50;8.90;99.90
43858;DHT22;29507;51.284;5.758;2022-09-27T18:33:15;9.10;99.90
43858;DHT22;29507;51.284;5.758;2022-09-27T18:35:41;9.00;99.90
43858;DHT22;29507;51.284;5.758;2022-09-27T18:38:06;9.00;99.90
43858;DHT22;29507;51.284;5.758;2022-09-27T18:40:33;8.80;99.90
43858;DHT22;29507;51.284;5.758;2022-09-27T18:42:59;8.80;99.90
43858;DHT22;29507;51.284;5.758;2022-09-27T18:45:25;8.70;99.90